OAL063 RCYU-ROAH
Flight info
| Callsign | OAL063 |
|---|---|
| Flight time | 2h 3m |
| Altitude | 5500 |
| Route | TOTEM YNE IGE SJE PAYAO GEMNI VELNO NHC |
| Aircraft | C208/L-SDFGR/C |
Departure
| Time | 2026-04-28 12:08 |
|---|---|
| Airport | Hualien Chiashan Airport (RCYU) |
Arrival
| Time | 2026-04-28 14:12 |
|---|---|
| Airport | Naha International Airport (ROAH) |
| Time | Latitude | Longitude | Altitude | Speed | Heading |
|---|---|---|---|---|---|
| 2026-04-28 11:58 | 24.02394 | 121.61393 | 50 ft | 0 kts | 296° |
| 2026-04-28 12:03 | 24.02393 | 121.61393 | 46 ft | 0 kts | 296° |
| 2026-04-28 12:05 | 24.02406 | 121.61406 | 51 ft | 8 kts | 80° |
| 2026-04-28 12:05 | 24.02428 | 121.61501 | 57 ft | 18 kts | 65° |
| 2026-04-28 12:05 | 24.02554 | 121.61589 | 54 ft | 26 kts | 26° |
| 2026-04-28 12:06 | 24.02708 | 121.61673 | 54 ft | 25 kts | 26° |
| 2026-04-28 12:06 | 24.02850 | 121.61748 | 59 ft | 22 kts | 26° |
| 2026-04-28 12:06 | 24.02984 | 121.61821 | 53 ft | 15 kts | 27° |
| 2026-04-28 12:06 | 24.02979 | 121.61905 | 59 ft | 0 kts | 116° |
| 2026-04-28 12:07 | 24.02979 | 121.61906 | 59 ft | 1 kts | 116° |
| 2026-04-28 12:07 | 24.02959 | 121.61948 | 54 ft | 11 kts | 115° |
| 2026-04-28 12:07 | 24.02924 | 121.61989 | 52 ft | 7 kts | 204° |
| 2026-04-28 12:07 | 24.02773 | 121.61908 | 59 ft | 49 kts | 206° |
| 2026-04-28 12:08 | 24.02323 | 121.61664 | 92 ft | 87 kts | 205° |
| 2026-04-28 12:08 | 24.01767 | 121.61404 | 377 ft | 87 kts | 199° |
| 2026-04-28 12:08 | 24.01163 | 121.61286 | 626 ft | 91 kts | 163° |
| 2026-04-28 12:08 | 24.00755 | 121.61797 | 874 ft | 92 kts | 122° |
| 2026-04-28 12:09 | 24.00729 | 121.62470 | 1138 ft | 93 kts | 69° |
| 2026-04-28 12:09 | 24.00916 | 121.63149 | 1396 ft | 94 kts | 76° |
| 2026-04-28 12:09 | 24.01098 | 121.63842 | 1649 ft | 95 kts | 75° |
| 2026-04-28 12:09 | 24.01292 | 121.64578 | 1831 ft | 106 kts | 74° |
| 2026-04-28 12:10 | 24.01504 | 121.65388 | 2005 ft | 115 kts | 75° |
| 2026-04-28 12:10 | 24.01739 | 121.66280 | 2156 ft | 129 kts | 75° |
| 2026-04-28 12:10 | 24.02002 | 121.67268 | 2319 ft | 140 kts | 75° |
| 2026-04-28 12:10 | 24.02280 | 121.68319 | 2478 ft | 148 kts | 75° |
| 2026-04-28 12:11 | 24.02679 | 121.69377 | 2605 ft | 156 kts | 53° |
| 2026-04-28 12:11 | 24.03371 | 121.70313 | 2736 ft | 160 kts | 59° |
| 2026-04-28 12:11 | 24.03755 | 121.71450 | 2858 ft | 161 kts | 82° |
| 2026-04-28 12:11 | 24.03913 | 121.72655 | 2989 ft | 162 kts | 84° |
| 2026-04-28 12:12 | 24.04080 | 121.73884 | 3113 ft | 164 kts | 83° |
| 2026-04-28 12:12 | 24.04252 | 121.75124 | 3237 ft | 165 kts | 84° |
| 2026-04-28 12:12 | 24.04417 | 121.76367 | 3360 ft | 165 kts | 84° |
| 2026-04-28 12:12 | 24.04578 | 121.77612 | 3480 ft | 166 kts | 84° |
| 2026-04-28 12:13 | 24.04748 | 121.78869 | 3613 ft | 169 kts | 84° |
| 2026-04-28 12:13 | 24.04919 | 121.80151 | 3728 ft | 171 kts | 84° |
| 2026-04-28 12:13 | 24.05092 | 121.81435 | 3850 ft | 169 kts | 84° |
| 2026-04-28 12:13 | 24.05262 | 121.82704 | 3960 ft | 168 kts | 84° |
| 2026-04-28 12:14 | 24.05428 | 121.83967 | 4081 ft | 168 kts | 84° |
| 2026-04-28 12:14 | 24.05596 | 121.85226 | 4203 ft | 167 kts | 84° |
| 2026-04-28 12:14 | 24.05763 | 121.86482 | 4324 ft | 166 kts | 85° |
| 2026-04-28 12:14 | 24.05930 | 121.87733 | 4437 ft | 166 kts | 84° |
| 2026-04-28 12:15 | 24.06096 | 121.88981 | 4558 ft | 166 kts | 85° |
| 2026-04-28 12:15 | 24.06262 | 121.90232 | 4686 ft | 166 kts | 84° |
| 2026-04-28 12:15 | 24.06430 | 121.91480 | 4807 ft | 166 kts | 85° |
| 2026-04-28 12:15 | 24.06595 | 121.92727 | 4928 ft | 166 kts | 85° |
| 2026-04-28 12:16 | 24.06842 | 121.93960 | 5048 ft | 168 kts | 71° |
| 2026-04-28 12:16 | 24.07314 | 121.95136 | 5167 ft | 169 kts | 69° |
| 2026-04-28 12:16 | 24.07767 | 121.96327 | 5288 ft | 170 kts | 70° |
| 2026-04-28 12:16 | 24.08216 | 121.97519 | 5410 ft | 169 kts | 70° |
| 2026-04-28 12:17 | 24.08670 | 121.98717 | 5477 ft | 173 kts | 70° |
| 2026-04-28 12:17 | 24.09137 | 121.99959 | 5483 ft | 179 kts | 70° |
| 2026-04-28 12:17 | 24.09613 | 122.01207 | 5489 ft | 182 kts | 70° |
| 2026-04-28 12:17 | 24.10100 | 122.02494 | 5489 ft | 184 kts | 70° |
| 2026-04-28 12:18 | 24.10590 | 122.03790 | 5492 ft | 185 kts | 70° |
| 2026-04-28 12:18 | 24.11084 | 122.05095 | 5494 ft | 186 kts | 70° |
| 2026-04-28 12:18 | 24.11581 | 122.06407 | 5487 ft | 186 kts | 70° |
| 2026-04-28 12:18 | 24.12078 | 122.07722 | 5483 ft | 187 kts | 70° |
| 2026-04-28 12:19 | 24.12575 | 122.09034 | 5481 ft | 186 kts | 71° |
| 2026-04-28 12:19 | 24.13070 | 122.10351 | 5485 ft | 187 kts | 70° |
| 2026-04-28 12:19 | 24.13570 | 122.11666 | 5487 ft | 187 kts | 70° |
| 2026-04-28 12:19 | 24.14066 | 122.12981 | 5488 ft | 187 kts | 70° |
| 2026-04-28 12:20 | 24.14562 | 122.14298 | 5487 ft | 187 kts | 70° |
| 2026-04-28 12:20 | 24.15059 | 122.15613 | 5486 ft | 187 kts | 70° |
| 2026-04-28 12:20 | 24.15555 | 122.16932 | 5486 ft | 187 kts | 70° |
| 2026-04-28 12:20 | 24.16045 | 122.18231 | 5483 ft | 186 kts | 71° |
| 2026-04-28 12:21 | 24.16541 | 122.19545 | 5476 ft | 186 kts | 70° |
| 2026-04-28 12:21 | 24.17036 | 122.20858 | 5481 ft | 187 kts | 70° |
| 2026-04-28 12:21 | 24.17532 | 122.22173 | 5479 ft | 186 kts | 70° |
| 2026-04-28 12:21 | 24.18027 | 122.23488 | 5481 ft | 187 kts | 70° |
| 2026-04-28 12:22 | 24.18524 | 122.24809 | 5479 ft | 187 kts | 70° |
| 2026-04-28 12:22 | 24.19019 | 122.26124 | 5480 ft | 187 kts | 70° |
| 2026-04-28 12:22 | 24.19515 | 122.27442 | 5480 ft | 187 kts | 70° |
| 2026-04-28 12:22 | 24.20013 | 122.28763 | 5480 ft | 187 kts | 70° |
| 2026-04-28 12:23 | 24.20502 | 122.30066 | 5481 ft | 187 kts | 71° |
| 2026-04-28 12:23 | 24.20998 | 122.31385 | 5485 ft | 187 kts | 70° |
| 2026-04-28 12:23 | 24.21494 | 122.32702 | 5481 ft | 187 kts | 71° |
| 2026-04-28 12:23 | 24.21988 | 122.34021 | 5482 ft | 187 kts | 71° |
| 2026-04-28 12:24 | 24.22484 | 122.35342 | 5482 ft | 188 kts | 71° |
| 2026-04-28 12:24 | 24.22981 | 122.36663 | 5483 ft | 188 kts | 70° |
| 2026-04-28 12:24 | 24.23479 | 122.37990 | 5480 ft | 188 kts | 70° |
| 2026-04-28 12:24 | 24.23977 | 122.39318 | 5486 ft | 188 kts | 71° |
| 2026-04-28 12:25 | 24.24475 | 122.40644 | 5481 ft | 188 kts | 71° |
| 2026-04-28 12:25 | 24.24971 | 122.41967 | 5481 ft | 188 kts | 71° |
| 2026-04-28 12:25 | 24.25467 | 122.43291 | 5481 ft | 188 kts | 71° |
| 2026-04-28 12:25 | 24.25963 | 122.44616 | 5481 ft | 188 kts | 71° |
| 2026-04-28 12:26 | 24.26460 | 122.45942 | 5478 ft | 188 kts | 70° |
| 2026-04-28 12:26 | 24.26958 | 122.47272 | 5481 ft | 189 kts | 70° |
| 2026-04-28 12:26 | 24.27458 | 122.48601 | 5479 ft | 189 kts | 70° |
| 2026-04-28 12:26 | 24.27957 | 122.49935 | 5477 ft | 189 kts | 71° |
| 2026-04-28 12:27 | 24.28453 | 122.51264 | 5481 ft | 189 kts | 70° |
| 2026-04-28 12:27 | 24.28954 | 122.52600 | 5481 ft | 189 kts | 70° |
| 2026-04-28 12:27 | 24.29451 | 122.53937 | 5483 ft | 189 kts | 71° |
| 2026-04-28 12:27 | 24.29953 | 122.55268 | 5481 ft | 189 kts | 70° |
| 2026-04-28 12:28 | 24.30451 | 122.56600 | 5480 ft | 189 kts | 71° |
| 2026-04-28 12:28 | 24.30945 | 122.57933 | 5483 ft | 189 kts | 70° |
| 2026-04-28 12:28 | 24.31443 | 122.59264 | 5489 ft | 189 kts | 70° |
| 2026-04-28 12:28 | 24.31941 | 122.60598 | 5486 ft | 189 kts | 70° |
| 2026-04-28 12:29 | 24.32935 | 122.63250 | 5485 ft | 189 kts | 70° |
| 2026-04-28 12:29 | 24.33435 | 122.64589 | 5488 ft | 189 kts | 70° |
| 2026-04-28 12:29 | 24.33935 | 122.65929 | 5486 ft | 190 kts | 69° |
| 2026-04-28 12:30 | 24.34437 | 122.67277 | 5490 ft | 191 kts | 70° |
| 2026-04-28 12:30 | 24.34936 | 122.68623 | 5487 ft | 190 kts | 70° |
| 2026-04-28 12:30 | 24.35436 | 122.69963 | 5489 ft | 189 kts | 71° |
| 2026-04-28 12:30 | 24.35934 | 122.71301 | 5482 ft | 190 kts | 70° |
| 2026-04-28 12:31 | 24.36432 | 122.72638 | 5486 ft | 189 kts | 71° |
| 2026-04-28 12:31 | 24.36928 | 122.73970 | 5480 ft | 188 kts | 71° |
| 2026-04-28 12:31 | 24.37425 | 122.75300 | 5478 ft | 188 kts | 70° |
| 2026-04-28 12:31 | 24.37916 | 122.76630 | 5478 ft | 189 kts | 71° |
| 2026-04-28 12:32 | 24.38407 | 122.77947 | 5482 ft | 189 kts | 70° |
| 2026-04-28 12:32 | 24.38902 | 122.79278 | 5473 ft | 188 kts | 71° |
| 2026-04-28 12:32 | 24.39395 | 122.80610 | 5476 ft | 188 kts | 71° |
| 2026-04-28 12:32 | 24.39892 | 122.81943 | 5474 ft | 189 kts | 71° |
| 2026-04-28 12:33 | 24.40385 | 122.83275 | 5474 ft | 189 kts | 70° |
| 2026-04-28 12:33 | 24.40882 | 122.84607 | 5471 ft | 189 kts | 71° |
| 2026-04-28 12:33 | 24.41375 | 122.85942 | 5472 ft | 189 kts | 72° |
| 2026-04-28 12:33 | 24.41871 | 122.87275 | 5475 ft | 189 kts | 70° |
| 2026-04-28 12:34 | 24.42368 | 122.88612 | 5469 ft | 190 kts | 71° |
| 2026-04-28 12:34 | 24.42864 | 122.89953 | 5474 ft | 190 kts | 70° |
| 2026-04-28 12:34 | 24.43362 | 122.91290 | 5469 ft | 188 kts | 71° |
| 2026-04-28 12:34 | 24.43857 | 122.92627 | 5469 ft | 188 kts | 71° |
| 2026-04-28 12:35 | 24.44349 | 122.93959 | 5472 ft | 188 kts | 71° |
| 2026-04-28 12:35 | 24.44836 | 122.95275 | 5469 ft | 189 kts | 71° |
| 2026-04-28 12:35 | 24.45334 | 122.96617 | 5474 ft | 190 kts | 71° |
| 2026-04-28 12:35 | 24.45834 | 122.97964 | 5468 ft | 190 kts | 70° |
| 2026-04-28 12:36 | 24.46320 | 122.99308 | 5476 ft | 189 kts | 74° |
| 2026-04-28 12:36 | 24.46467 | 123.00712 | 5468 ft | 184 kts | 98° |
| 2026-04-28 12:36 | 24.46367 | 123.02115 | 5468 ft | 185 kts | 97° |
| 2026-04-28 12:36 | 24.46305 | 123.03527 | 5475 ft | 185 kts | 97° |
| 2026-04-28 12:37 | 24.46237 | 123.04940 | 5473 ft | 185 kts | 97° |
| 2026-04-28 12:37 | 24.46162 | 123.06350 | 5473 ft | 185 kts | 97° |
| 2026-04-28 12:37 | 24.46089 | 123.07754 | 5473 ft | 184 kts | 97° |
| 2026-04-28 12:37 | 24.46015 | 123.09154 | 5473 ft | 184 kts | 97° |
| 2026-04-28 12:38 | 24.45942 | 123.10554 | 5473 ft | 184 kts | 97° |
| 2026-04-28 12:38 | 24.45871 | 123.11956 | 5475 ft | 184 kts | 97° |
| 2026-04-28 12:38 | 24.45797 | 123.13356 | 5476 ft | 184 kts | 97° |
| 2026-04-28 12:38 | 24.45724 | 123.14735 | 5478 ft | 183 kts | 97° |
| 2026-04-28 12:39 | 24.45651 | 123.16132 | 5477 ft | 183 kts | 97° |
| 2026-04-28 12:39 | 24.45577 | 123.17519 | 5479 ft | 182 kts | 97° |
| 2026-04-28 12:39 | 24.45505 | 123.18904 | 5477 ft | 181 kts | 97° |
| 2026-04-28 12:39 | 24.45430 | 123.20285 | 5476 ft | 181 kts | 97° |
| 2026-04-28 12:40 | 24.45358 | 123.21669 | 5477 ft | 182 kts | 97° |
| 2026-04-28 12:40 | 24.45286 | 123.23057 | 5480 ft | 181 kts | 97° |
| 2026-04-28 12:40 | 24.45211 | 123.24441 | 5479 ft | 182 kts | 98° |
| 2026-04-28 12:40 | 24.45137 | 123.25824 | 5479 ft | 181 kts | 97° |
| 2026-04-28 12:41 | 24.45064 | 123.27204 | 5483 ft | 182 kts | 97° |
| 2026-04-28 12:41 | 24.44991 | 123.28572 | 5481 ft | 182 kts | 97° |
| 2026-04-28 12:41 | 24.44918 | 123.29954 | 5483 ft | 181 kts | 97° |
| 2026-04-28 12:41 | 24.44843 | 123.31336 | 5488 ft | 181 kts | 97° |
| 2026-04-28 12:42 | 24.44769 | 123.32717 | 5486 ft | 181 kts | 97° |
| 2026-04-28 12:42 | 24.44696 | 123.34095 | 5486 ft | 181 kts | 97° |
| 2026-04-28 12:42 | 24.44621 | 123.35482 | 5490 ft | 182 kts | 97° |
| 2026-04-28 12:42 | 24.44546 | 123.36868 | 5493 ft | 182 kts | 97° |
| 2026-04-28 12:43 | 24.44473 | 123.38249 | 5492 ft | 182 kts | 97° |
| 2026-04-28 12:43 | 24.44398 | 123.39632 | 5494 ft | 181 kts | 97° |
| 2026-04-28 12:43 | 24.44323 | 123.41011 | 5490 ft | 181 kts | 97° |
| 2026-04-28 12:43 | 24.44249 | 123.42385 | 5491 ft | 180 kts | 97° |
| 2026-04-28 12:44 | 24.44174 | 123.43757 | 5491 ft | 180 kts | 97° |
| 2026-04-28 12:44 | 24.44099 | 123.45122 | 5489 ft | 179 kts | 97° |
| 2026-04-28 12:44 | 24.44023 | 123.46491 | 5492 ft | 180 kts | 97° |
| 2026-04-28 12:44 | 24.43951 | 123.47842 | 5491 ft | 180 kts | 97° |
| 2026-04-28 12:45 | 24.43877 | 123.49212 | 5492 ft | 180 kts | 97° |
| 2026-04-28 12:45 | 24.43799 | 123.50584 | 5496 ft | 180 kts | 97° |
| 2026-04-28 12:45 | 24.43725 | 123.51955 | 5494 ft | 180 kts | 97° |
| 2026-04-28 12:45 | 24.43652 | 123.53327 | 5496 ft | 180 kts | 97° |
| 2026-04-28 12:46 | 24.43575 | 123.54698 | 5494 ft | 180 kts | 97° |
| 2026-04-28 12:46 | 24.43499 | 123.56064 | 5494 ft | 179 kts | 97° |
| 2026-04-28 12:46 | 24.43421 | 123.57431 | 5494 ft | 180 kts | 97° |
| 2026-04-28 12:46 | 24.43348 | 123.58802 | 5496 ft | 180 kts | 97° |
| 2026-04-28 12:47 | 24.43272 | 123.60177 | 5494 ft | 181 kts | 97° |
| 2026-04-28 12:47 | 24.43194 | 123.61556 | 5496 ft | 181 kts | 97° |
| 2026-04-28 12:47 | 24.43119 | 123.62921 | 5497 ft | 181 kts | 97° |
| 2026-04-28 12:47 | 24.43044 | 123.64299 | 5498 ft | 181 kts | 97° |
| 2026-04-28 12:48 | 24.42965 | 123.65683 | 5498 ft | 182 kts | 97° |
| 2026-04-28 12:48 | 24.42887 | 123.67066 | 5498 ft | 181 kts | 97° |
| 2026-04-28 12:48 | 24.42810 | 123.68446 | 5497 ft | 181 kts | 97° |
| 2026-04-28 12:48 | 24.42733 | 123.69824 | 5498 ft | 181 kts | 97° |
| 2026-04-28 12:49 | 24.42656 | 123.71199 | 5498 ft | 181 kts | 97° |
| 2026-04-28 12:49 | 24.42578 | 123.72579 | 5496 ft | 181 kts | 97° |
| 2026-04-28 12:49 | 24.42527 | 123.73490 | 5496 ft | 180 kts | 97° |
| 2026-04-28 12:49 | 24.42449 | 123.74870 | 5499 ft | 181 kts | 97° |
| 2026-04-28 12:50 | 24.42371 | 123.76250 | 5498 ft | 181 kts | 97° |
| 2026-04-28 12:50 | 24.42268 | 123.78075 | 5497 ft | 181 kts | 97° |
| 2026-04-28 12:50 | 24.42190 | 123.79451 | 5503 ft | 180 kts | 97° |
| 2026-04-28 12:50 | 24.42137 | 123.80377 | 5500 ft | 180 kts | 96° |
| 2026-04-28 12:51 | 24.42060 | 123.81749 | 5503 ft | 180 kts | 97° |
| 2026-04-28 12:51 | 24.41984 | 123.83106 | 5505 ft | 181 kts | 97° |
| 2026-04-28 12:51 | 24.41903 | 123.84483 | 5505 ft | 182 kts | 97° |
| 2026-04-28 12:51 | 24.41824 | 123.85873 | 5506 ft | 183 kts | 97° |
| 2026-04-28 12:52 | 24.41745 | 123.87266 | 5502 ft | 183 kts | 97° |
| 2026-04-28 12:52 | 24.41666 | 123.88659 | 5500 ft | 183 kts | 97° |
| 2026-04-28 12:52 | 24.41585 | 123.90045 | 5496 ft | 182 kts | 97° |
| 2026-04-28 12:52 | 24.41505 | 123.91423 | 5494 ft | 181 kts | 96° |
| 2026-04-28 12:53 | 24.41426 | 123.92801 | 5493 ft | 181 kts | 97° |
| 2026-04-28 12:53 | 24.41347 | 123.94181 | 5489 ft | 181 kts | 97° |
| 2026-04-28 12:53 | 24.41267 | 123.95557 | 5490 ft | 181 kts | 97° |
| 2026-04-28 12:53 | 24.41187 | 123.96939 | 5489 ft | 181 kts | 97° |
| 2026-04-28 12:54 | 24.41109 | 123.98301 | 5483 ft | 181 kts | 97° |
| 2026-04-28 12:54 | 24.41028 | 123.99683 | 5488 ft | 182 kts | 97° |
| 2026-04-28 12:54 | 24.40948 | 124.01066 | 5484 ft | 182 kts | 97° |
| 2026-04-28 12:54 | 24.40867 | 124.02449 | 5483 ft | 182 kts | 97° |
| 2026-04-28 12:55 | 24.40787 | 124.03832 | 5484 ft | 182 kts | 97° |
| 2026-04-28 12:55 | 24.40706 | 124.05216 | 5480 ft | 182 kts | 97° |
| 2026-04-28 12:55 | 24.40625 | 124.06604 | 5482 ft | 182 kts | 97° |
| 2026-04-28 12:55 | 24.40544 | 124.07992 | 5477 ft | 182 kts | 97° |
| 2026-04-28 12:56 | 24.40462 | 124.09376 | 5474 ft | 182 kts | 97° |
| 2026-04-28 12:56 | 24.40381 | 124.10763 | 5476 ft | 182 kts | 97° |
| 2026-04-28 12:56 | 24.40300 | 124.12148 | 5470 ft | 182 kts | 97° |
| 2026-04-28 12:56 | 24.40218 | 124.13535 | 5472 ft | 182 kts | 97° |
| 2026-04-28 12:57 | 24.40136 | 124.14922 | 5468 ft | 182 kts | 97° |
| 2026-04-28 12:57 | 24.40054 | 124.16294 | 5468 ft | 182 kts | 97° |
| 2026-04-28 12:57 | 24.39973 | 124.17681 | 5471 ft | 183 kts | 97° |
| 2026-04-28 12:57 | 24.39890 | 124.19075 | 5470 ft | 183 kts | 96° |
| 2026-04-28 12:58 | 24.39809 | 124.20468 | 5472 ft | 183 kts | 97° |
| 2026-04-28 12:58 | 24.39727 | 124.21864 | 5473 ft | 183 kts | 97° |
| 2026-04-28 12:58 | 24.39657 | 124.23263 | 5471 ft | 185 kts | 92° |
| 2026-04-28 12:58 | 24.39995 | 124.24636 | 5469 ft | 190 kts | 65° |
| 2026-04-28 12:59 | 24.40623 | 124.25908 | 5469 ft | 189 kts | 64° |
| 2026-04-28 12:59 | 24.41225 | 124.27188 | 5470 ft | 188 kts | 65° |
| 2026-04-28 12:59 | 24.41819 | 124.28452 | 5468 ft | 188 kts | 64° |
| 2026-04-28 12:59 | 24.42425 | 124.29726 | 5466 ft | 188 kts | 64° |
| 2026-04-28 13:00 | 24.43029 | 124.31000 | 5465 ft | 188 kts | 64° |
| 2026-04-28 13:00 | 24.43632 | 124.32272 | 5466 ft | 188 kts | 65° |
| 2026-04-28 13:00 | 24.44236 | 124.33546 | 5466 ft | 189 kts | 64° |
| 2026-04-28 13:00 | 24.44842 | 124.34825 | 5472 ft | 189 kts | 65° |
| 2026-04-28 13:01 | 24.45449 | 124.36105 | 5473 ft | 189 kts | 65° |
| 2026-04-28 13:01 | 24.46055 | 124.37386 | 5476 ft | 189 kts | 64° |
| 2026-04-28 13:01 | 24.46660 | 124.38666 | 5478 ft | 189 kts | 65° |
| 2026-04-28 13:01 | 24.47269 | 124.39950 | 5478 ft | 189 kts | 64° |
| 2026-04-28 13:02 | 24.47867 | 124.41214 | 5483 ft | 189 kts | 64° |
| 2026-04-28 13:02 | 24.48479 | 124.42507 | 5485 ft | 189 kts | 65° |
| 2026-04-28 13:02 | 24.49074 | 124.43769 | 5485 ft | 188 kts | 64° |
| 2026-04-28 13:02 | 24.49678 | 124.45046 | 5486 ft | 188 kts | 64° |
| 2026-04-28 13:03 | 24.50281 | 124.46319 | 5487 ft | 188 kts | 65° |
| 2026-04-28 13:03 | 24.50881 | 124.47587 | 5497 ft | 187 kts | 65° |
| 2026-04-28 13:03 | 24.51480 | 124.48857 | 5505 ft | 187 kts | 64° |
| 2026-04-28 13:03 | 24.52080 | 124.50127 | 5498 ft | 188 kts | 64° |
| 2026-04-28 13:04 | 24.52681 | 124.51404 | 5496 ft | 188 kts | 64° |
| 2026-04-28 13:04 | 24.53283 | 124.52679 | 5492 ft | 188 kts | 64° |
| 2026-04-28 13:04 | 24.53884 | 124.53956 | 5491 ft | 187 kts | 64° |
| 2026-04-28 13:04 | 24.54485 | 124.55227 | 5486 ft | 188 kts | 64° |
| 2026-04-28 13:05 | 24.55086 | 124.56502 | 5485 ft | 188 kts | 64° |
| 2026-04-28 13:05 | 24.55680 | 124.57763 | 5484 ft | 188 kts | 64° |
| 2026-04-28 13:05 | 24.56283 | 124.59042 | 5483 ft | 189 kts | 64° |
| 2026-04-28 13:05 | 24.56889 | 124.60325 | 5481 ft | 189 kts | 64° |
| 2026-04-28 13:06 | 24.57494 | 124.61611 | 5479 ft | 189 kts | 64° |
| 2026-04-28 13:06 | 24.58099 | 124.62898 | 5480 ft | 189 kts | 64° |
| 2026-04-28 13:06 | 24.58707 | 124.64180 | 5482 ft | 189 kts | 64° |
| 2026-04-28 13:06 | 24.59308 | 124.65461 | 5478 ft | 188 kts | 64° |
| 2026-04-28 13:07 | 24.59906 | 124.66738 | 5476 ft | 188 kts | 64° |
| 2026-04-28 13:07 | 24.60505 | 124.68011 | 5479 ft | 188 kts | 64° |
| 2026-04-28 13:07 | 24.61105 | 124.69286 | 5478 ft | 188 kts | 64° |
| 2026-04-28 13:07 | 24.61704 | 124.70564 | 5476 ft | 188 kts | 64° |
| 2026-04-28 13:08 | 24.62303 | 124.71841 | 5477 ft | 188 kts | 64° |
| 2026-04-28 13:08 | 24.62907 | 124.73119 | 5482 ft | 188 kts | 64° |
| 2026-04-28 13:08 | 24.63505 | 124.74384 | 5478 ft | 189 kts | 64° |
| 2026-04-28 13:08 | 24.64113 | 124.75685 | 5478 ft | 189 kts | 64° |
| 2026-04-28 13:09 | 24.64707 | 124.76954 | 5479 ft | 189 kts | 64° |
| 2026-04-28 13:09 | 24.65312 | 124.78240 | 5482 ft | 190 kts | 64° |
| 2026-04-28 13:09 | 24.65919 | 124.79529 | 5484 ft | 189 kts | 64° |
| 2026-04-28 13:09 | 24.66520 | 124.80813 | 5509 ft | 189 kts | 64° |
| 2026-04-28 13:10 | 24.67118 | 124.82095 | 5510 ft | 188 kts | 64° |
| 2026-04-28 13:10 | 24.67719 | 124.83374 | 5509 ft | 188 kts | 64° |
| 2026-04-28 13:10 | 24.68318 | 124.84650 | 5509 ft | 187 kts | 64° |
| 2026-04-28 13:10 | 24.68915 | 124.85924 | 5510 ft | 188 kts | 64° |
| 2026-04-28 13:11 | 24.69512 | 124.87202 | 5513 ft | 188 kts | 64° |
| 2026-04-28 13:11 | 24.70110 | 124.88477 | 5514 ft | 188 kts | 64° |
| 2026-04-28 13:11 | 24.70707 | 124.89753 | 5515 ft | 188 kts | 63° |
| 2026-04-28 13:11 | 24.71304 | 124.91028 | 5518 ft | 188 kts | 64° |
| 2026-04-28 13:12 | 24.71903 | 124.92309 | 5518 ft | 188 kts | 63° |
| 2026-04-28 13:12 | 24.72503 | 124.93595 | 5520 ft | 189 kts | 63° |
| 2026-04-28 13:12 | 24.73105 | 124.94884 | 5515 ft | 189 kts | 63° |
| 2026-04-28 13:12 | 24.73711 | 124.96171 | 5517 ft | 190 kts | 63° |
| 2026-04-28 13:13 | 24.74313 | 124.97462 | 5512 ft | 189 kts | 63° |
| 2026-04-28 13:13 | 24.74915 | 124.98752 | 5511 ft | 189 kts | 64° |
| 2026-04-28 13:13 | 24.75508 | 125.00025 | 5509 ft | 189 kts | 63° |
| 2026-04-28 13:13 | 24.76108 | 125.01311 | 5507 ft | 189 kts | 63° |
| 2026-04-28 13:14 | 24.76711 | 125.02596 | 5504 ft | 189 kts | 63° |
| 2026-04-28 13:14 | 24.77310 | 125.03877 | 5506 ft | 188 kts | 63° |
| 2026-04-28 13:14 | 24.77907 | 125.05162 | 5505 ft | 188 kts | 63° |
| 2026-04-28 13:14 | 24.78504 | 125.06442 | 5502 ft | 188 kts | 63° |
| 2026-04-28 13:15 | 24.79103 | 125.07726 | 5501 ft | 188 kts | 63° |
| 2026-04-28 13:15 | 24.79699 | 125.09006 | 5505 ft | 188 kts | 63° |
| 2026-04-28 13:15 | 24.80297 | 125.10289 | 5502 ft | 189 kts | 63° |
| 2026-04-28 13:15 | 24.80896 | 125.11575 | 5502 ft | 189 kts | 63° |
| 2026-04-28 13:16 | 24.81496 | 125.12864 | 5504 ft | 189 kts | 63° |
| 2026-04-28 13:16 | 24.82099 | 125.14153 | 5506 ft | 190 kts | 63° |
| 2026-04-28 13:16 | 24.82706 | 125.15445 | 5502 ft | 190 kts | 63° |
| 2026-04-28 13:16 | 24.83326 | 125.16730 | 5503 ft | 190 kts | 62° |
| 2026-04-28 13:17 | 24.83942 | 125.18016 | 5504 ft | 190 kts | 62° |
| 2026-04-28 13:17 | 24.84551 | 125.19285 | 5501 ft | 190 kts | 62° |
| 2026-04-28 13:17 | 24.85167 | 125.20571 | 5503 ft | 190 kts | 63° |
| 2026-04-28 13:17 | 24.85781 | 125.21860 | 5502 ft | 190 kts | 62° |
| 2026-04-28 13:18 | 24.86394 | 125.23141 | 5502 ft | 189 kts | 62° |
| 2026-04-28 13:18 | 24.87004 | 125.24421 | 5501 ft | 189 kts | 62° |
| 2026-04-28 13:18 | 24.87615 | 125.25702 | 5527 ft | 189 kts | 62° |
| 2026-04-28 13:18 | 24.88227 | 125.26981 | 5527 ft | 189 kts | 62° |
| 2026-04-28 13:19 | 24.88841 | 125.28264 | 5529 ft | 190 kts | 62° |
| 2026-04-28 13:19 | 24.89454 | 125.29551 | 5528 ft | 189 kts | 62° |
| 2026-04-28 13:19 | 24.90063 | 125.30833 | 5527 ft | 189 kts | 62° |
| 2026-04-28 13:19 | 24.90673 | 125.32111 | 5526 ft | 189 kts | 62° |
| 2026-04-28 13:20 | 24.91285 | 125.33390 | 5526 ft | 189 kts | 62° |
| 2026-04-28 13:20 | 24.91893 | 125.34668 | 5527 ft | 189 kts | 62° |
| 2026-04-28 13:20 | 24.92507 | 125.35954 | 5528 ft | 190 kts | 62° |
| 2026-04-28 13:20 | 24.93120 | 125.37243 | 5527 ft | 190 kts | 62° |
| 2026-04-28 13:21 | 24.93732 | 125.38531 | 5528 ft | 190 kts | 62° |
| 2026-04-28 13:21 | 24.94345 | 125.39822 | 5528 ft | 190 kts | 62° |
| 2026-04-28 13:21 | 24.94953 | 125.41092 | 5528 ft | 190 kts | 62° |
| 2026-04-28 13:21 | 24.95567 | 125.42381 | 5527 ft | 190 kts | 62° |
| 2026-04-28 13:22 | 24.96179 | 125.43672 | 5526 ft | 190 kts | 62° |
| 2026-04-28 13:22 | 24.96792 | 125.44961 | 5529 ft | 190 kts | 62° |
| 2026-04-28 13:22 | 24.97407 | 125.46251 | 5528 ft | 189 kts | 62° |
| 2026-04-28 13:22 | 24.98018 | 125.47536 | 5527 ft | 189 kts | 62° |
| 2026-04-28 13:23 | 24.98628 | 125.48823 | 5528 ft | 189 kts | 62° |
| 2026-04-28 13:23 | 24.99237 | 125.50106 | 5527 ft | 189 kts | 62° |
| 2026-04-28 13:23 | 24.99846 | 125.51390 | 5528 ft | 189 kts | 62° |
| 2026-04-28 13:23 | 25.00457 | 125.52675 | 5528 ft | 189 kts | 62° |
| 2026-04-28 13:24 | 25.01066 | 125.53958 | 5527 ft | 189 kts | 62° |
| 2026-04-28 13:24 | 25.01674 | 125.55241 | 5529 ft | 189 kts | 62° |
| 2026-04-28 13:24 | 25.02284 | 125.56526 | 5530 ft | 189 kts | 62° |
| 2026-04-28 13:24 | 25.02895 | 125.57814 | 5530 ft | 190 kts | 62° |
| 2026-04-28 13:25 | 25.03499 | 125.59088 | 5534 ft | 190 kts | 62° |
| 2026-04-28 13:25 | 25.04110 | 125.60380 | 5530 ft | 190 kts | 62° |
| 2026-04-28 13:25 | 25.04724 | 125.61672 | 5529 ft | 190 kts | 62° |
| 2026-04-28 13:25 | 25.05336 | 125.62962 | 5533 ft | 190 kts | 62° |
| 2026-04-28 13:26 | 25.05947 | 125.64254 | 5532 ft | 190 kts | 62° |
| 2026-04-28 13:26 | 25.06558 | 125.65548 | 5533 ft | 190 kts | 62° |
| 2026-04-28 13:26 | 25.07173 | 125.66841 | 5533 ft | 190 kts | 62° |
| 2026-04-28 13:26 | 25.07785 | 125.68136 | 5533 ft | 190 kts | 62° |
| 2026-04-28 13:27 | 25.08397 | 125.69429 | 5533 ft | 190 kts | 62° |
| 2026-04-28 13:27 | 25.09009 | 125.70727 | 5531 ft | 191 kts | 62° |
| 2026-04-28 13:27 | 25.09623 | 125.72023 | 5529 ft | 190 kts | 62° |
| 2026-04-28 13:27 | 25.10233 | 125.73317 | 5534 ft | 190 kts | 62° |
| 2026-04-28 13:28 | 25.10844 | 125.74610 | 5535 ft | 190 kts | 62° |
| 2026-04-28 13:28 | 25.11454 | 125.75900 | 5533 ft | 189 kts | 62° |
| 2026-04-28 13:28 | 25.12062 | 125.77190 | 5533 ft | 190 kts | 62° |
| 2026-04-28 13:28 | 25.12672 | 125.78482 | 5534 ft | 189 kts | 62° |
| 2026-04-28 13:29 | 25.13280 | 125.79770 | 5532 ft | 189 kts | 62° |
| 2026-04-28 13:29 | 25.13878 | 125.81038 | 5536 ft | 189 kts | 62° |
| 2026-04-28 13:29 | 25.14485 | 125.82326 | 5532 ft | 189 kts | 62° |
| 2026-04-28 13:29 | 25.15091 | 125.83605 | 5534 ft | 188 kts | 62° |
| 2026-04-28 13:30 | 25.15696 | 125.84889 | 5530 ft | 188 kts | 62° |
| 2026-04-28 13:30 | 25.16298 | 125.86169 | 5536 ft | 188 kts | 62° |
| 2026-04-28 13:30 | 25.16901 | 125.87450 | 5533 ft | 188 kts | 62° |
| 2026-04-28 13:30 | 25.17506 | 125.88733 | 5534 ft | 188 kts | 62° |
| 2026-04-28 13:31 | 25.18715 | 125.91299 | 5536 ft | 188 kts | 62° |
| 2026-04-28 13:31 | 25.19320 | 125.92587 | 5534 ft | 189 kts | 62° |
| 2026-04-28 13:31 | 25.19926 | 125.93875 | 5535 ft | 189 kts | 61° |
| 2026-04-28 13:32 | 25.20534 | 125.95168 | 5537 ft | 189 kts | 61° |
| 2026-04-28 13:32 | 25.21141 | 125.96458 | 5537 ft | 189 kts | 62° |
| 2026-04-28 13:32 | 25.21746 | 125.97747 | 5539 ft | 189 kts | 61° |
| 2026-04-28 13:32 | 25.22354 | 125.99038 | 5539 ft | 190 kts | 61° |
| 2026-04-28 13:33 | 25.22961 | 126.00332 | 5537 ft | 189 kts | 62° |
| 2026-04-28 13:33 | 25.23566 | 126.01623 | 5538 ft | 189 kts | 62° |
| 2026-04-28 13:33 | 25.24164 | 126.02893 | 5537 ft | 189 kts | 61° |
| 2026-04-28 13:33 | 25.24769 | 126.04182 | 5536 ft | 189 kts | 62° |
| 2026-04-28 13:34 | 25.25374 | 126.05472 | 5540 ft | 189 kts | 61° |
| 2026-04-28 13:34 | 25.25980 | 126.06762 | 5541 ft | 189 kts | 62° |
| 2026-04-28 13:34 | 25.26584 | 126.08051 | 5541 ft | 189 kts | 61° |
| 2026-04-28 13:34 | 25.27188 | 126.09337 | 5541 ft | 188 kts | 61° |
| 2026-04-28 13:35 | 25.27790 | 126.10622 | 5542 ft | 188 kts | 61° |
| 2026-04-28 13:35 | 25.28431 | 126.11879 | 5541 ft | 188 kts | 59° |
| 2026-04-28 13:35 | 25.29061 | 126.13142 | 5539 ft | 188 kts | 60° |
| 2026-04-28 13:35 | 25.29690 | 126.14407 | 5539 ft | 187 kts | 60° |
| 2026-04-28 13:36 | 25.30323 | 126.15665 | 5540 ft | 188 kts | 59° |
| 2026-04-28 13:36 | 25.30958 | 126.16925 | 5540 ft | 187 kts | 59° |
| 2026-04-28 13:36 | 25.31594 | 126.18184 | 5543 ft | 188 kts | 59° |
| 2026-04-28 13:36 | 25.32231 | 126.19443 | 5540 ft | 188 kts | 59° |
| 2026-04-28 13:37 | 25.32865 | 126.20706 | 5541 ft | 188 kts | 59° |
| 2026-04-28 13:37 | 25.33500 | 126.21969 | 5539 ft | 188 kts | 59° |
| 2026-04-28 13:37 | 25.34127 | 126.23213 | 5541 ft | 187 kts | 59° |
| 2026-04-28 13:37 | 25.34760 | 126.24471 | 5540 ft | 188 kts | 59° |
| 2026-04-28 13:38 | 25.35396 | 126.25735 | 5540 ft | 188 kts | 59° |
| 2026-04-28 13:38 | 25.36031 | 126.26996 | 5539 ft | 188 kts | 59° |
| 2026-04-28 13:38 | 25.36667 | 126.28262 | 5538 ft | 188 kts | 59° |
| 2026-04-28 13:38 | 25.37304 | 126.29527 | 5539 ft | 188 kts | 59° |
| 2026-04-28 13:39 | 25.37939 | 126.30791 | 5540 ft | 188 kts | 59° |
| 2026-04-28 13:39 | 25.38361 | 126.31631 | 5539 ft | 188 kts | 59° |
| 2026-04-28 13:39 | 25.38997 | 126.32896 | 5539 ft | 188 kts | 59° |
| 2026-04-28 13:39 | 25.39633 | 126.34161 | 5543 ft | 188 kts | 59° |
| 2026-04-28 13:40 | 25.40269 | 126.35428 | 5543 ft | 188 kts | 60° |
| 2026-04-28 13:40 | 25.40905 | 126.36697 | 5540 ft | 188 kts | 59° |
| 2026-04-28 13:40 | 25.41745 | 126.38370 | 5542 ft | 188 kts | 59° |
| 2026-04-28 13:40 | 25.42175 | 126.39223 | 5541 ft | 188 kts | 59° |
| 2026-04-28 13:41 | 25.42810 | 126.40488 | 5541 ft | 188 kts | 59° |
| 2026-04-28 13:41 | 25.43435 | 126.41737 | 5541 ft | 188 kts | 59° |
| 2026-04-28 13:41 | 25.44071 | 126.43006 | 5542 ft | 188 kts | 59° |
| 2026-04-28 13:41 | 25.44708 | 126.44273 | 5539 ft | 188 kts | 59° |
| 2026-04-28 13:42 | 25.45342 | 126.45540 | 5544 ft | 188 kts | 59° |
| 2026-04-28 13:42 | 25.45975 | 126.46809 | 5543 ft | 188 kts | 59° |
| 2026-04-28 13:42 | 25.46609 | 126.48075 | 5543 ft | 188 kts | 59° |
| 2026-04-28 13:42 | 25.47243 | 126.49340 | 5543 ft | 188 kts | 59° |
| 2026-04-28 13:43 | 25.47876 | 126.50605 | 5548 ft | 188 kts | 59° |
| 2026-04-28 13:43 | 25.48510 | 126.51870 | 5547 ft | 188 kts | 59° |
| 2026-04-28 13:43 | 25.49143 | 126.53137 | 5545 ft | 188 kts | 59° |
| 2026-04-28 13:43 | 25.49777 | 126.54404 | 5546 ft | 188 kts | 60° |
| 2026-04-28 13:44 | 25.50412 | 126.55673 | 5548 ft | 189 kts | 59° |
| 2026-04-28 13:44 | 25.51048 | 126.56945 | 5548 ft | 189 kts | 60° |
| 2026-04-28 13:44 | 25.51675 | 126.58200 | 5548 ft | 189 kts | 60° |
| 2026-04-28 13:44 | 25.52311 | 126.59474 | 5550 ft | 189 kts | 60° |
| 2026-04-28 13:45 | 25.52945 | 126.60744 | 5550 ft | 189 kts | 60° |
| 2026-04-28 13:45 | 25.53580 | 126.62015 | 5550 ft | 189 kts | 60° |
| 2026-04-28 13:45 | 25.54215 | 126.63286 | 5550 ft | 188 kts | 60° |
| 2026-04-28 13:45 | 25.54847 | 126.64555 | 5551 ft | 189 kts | 60° |
| 2026-04-28 13:46 | 25.55483 | 126.65829 | 5549 ft | 189 kts | 59° |
| 2026-04-28 13:46 | 25.56118 | 126.67102 | 5552 ft | 189 kts | 60° |
| 2026-04-28 13:46 | 25.56753 | 126.68377 | 5551 ft | 189 kts | 60° |
| 2026-04-28 13:46 | 25.57387 | 126.69648 | 5552 ft | 188 kts | 60° |
| 2026-04-28 13:47 | 25.58022 | 126.70922 | 5550 ft | 188 kts | 60° |
| 2026-04-28 13:47 | 25.58654 | 126.72192 | 5553 ft | 188 kts | 60° |
| 2026-04-28 13:47 | 25.59284 | 126.73460 | 5551 ft | 188 kts | 60° |
| 2026-04-28 13:47 | 25.59919 | 126.74729 | 5554 ft | 188 kts | 60° |
| 2026-04-28 13:48 | 25.60550 | 126.75996 | 5554 ft | 188 kts | 60° |
| 2026-04-28 13:48 | 25.61174 | 126.77250 | 5552 ft | 188 kts | 60° |
| 2026-04-28 13:48 | 25.61804 | 126.78519 | 5552 ft | 188 kts | 60° |
| 2026-04-28 13:48 | 25.62436 | 126.79790 | 5552 ft | 188 kts | 60° |
| 2026-04-28 13:49 | 25.63067 | 126.81059 | 5552 ft | 188 kts | 60° |
| 2026-04-28 13:49 | 25.63699 | 126.82330 | 5555 ft | 188 kts | 60° |
| 2026-04-28 13:49 | 25.64330 | 126.83600 | 5551 ft | 188 kts | 60° |
| 2026-04-28 13:49 | 25.64961 | 126.84870 | 5556 ft | 188 kts | 60° |
| 2026-04-28 13:50 | 25.65592 | 126.86140 | 5556 ft | 188 kts | 60° |
| 2026-04-28 13:50 | 25.66221 | 126.87409 | 5555 ft | 188 kts | 60° |
| 2026-04-28 13:50 | 25.66853 | 126.88680 | 5555 ft | 188 kts | 60° |
| 2026-04-28 13:50 | 25.67481 | 126.89947 | 5553 ft | 187 kts | 60° |
| 2026-04-28 13:51 | 25.68110 | 126.91214 | 5553 ft | 188 kts | 60° |
| 2026-04-28 13:51 | 25.68740 | 126.92457 | 5557 ft | 187 kts | 57° |
| 2026-04-28 13:51 | 25.69435 | 126.93702 | 5555 ft | 187 kts | 58° |
| 2026-04-28 13:51 | 25.70102 | 126.94944 | 5555 ft | 187 kts | 58° |
| 2026-04-28 13:52 | 25.70763 | 126.96164 | 5552 ft | 187 kts | 58° |
| 2026-04-28 13:52 | 25.71435 | 126.97397 | 5555 ft | 186 kts | 58° |
| 2026-04-28 13:52 | 25.72106 | 126.98628 | 5552 ft | 187 kts | 58° |
| 2026-04-28 13:52 | 25.72778 | 126.99860 | 5550 ft | 187 kts | 58° |
| 2026-04-28 13:53 | 25.73449 | 127.01093 | 5551 ft | 186 kts | 58° |
| 2026-04-28 13:53 | 25.74119 | 127.02323 | 5553 ft | 187 kts | 58° |
| 2026-04-28 13:53 | 25.74791 | 127.03553 | 5554 ft | 186 kts | 58° |
| 2026-04-28 13:53 | 25.75461 | 127.04785 | 5555 ft | 187 kts | 58° |
| 2026-04-28 13:54 | 25.76131 | 127.06019 | 5555 ft | 186 kts | 58° |
| 2026-04-28 13:54 | 25.76802 | 127.07250 | 5554 ft | 187 kts | 58° |
| 2026-04-28 13:54 | 25.77475 | 127.08484 | 5556 ft | 187 kts | 58° |
| 2026-04-28 13:54 | 25.78148 | 127.09723 | 5559 ft | 187 kts | 58° |
| 2026-04-28 13:55 | 25.78811 | 127.10944 | 5559 ft | 187 kts | 58° |
| 2026-04-28 13:55 | 25.79481 | 127.12180 | 5559 ft | 187 kts | 58° |
| 2026-04-28 13:55 | 25.80160 | 127.13421 | 5506 ft | 189 kts | 58° |
| 2026-04-28 13:55 | 25.80836 | 127.14665 | 5507 ft | 188 kts | 58° |
| 2026-04-28 13:56 | 25.81508 | 127.15904 | 5509 ft | 187 kts | 59° |
| 2026-04-28 13:56 | 25.82179 | 127.17142 | 5505 ft | 187 kts | 59° |
| 2026-04-28 13:56 | 25.82849 | 127.18377 | 5506 ft | 187 kts | 59° |
| 2026-04-28 13:56 | 25.83520 | 127.19613 | 5506 ft | 187 kts | 59° |
| 2026-04-28 13:57 | 25.84190 | 127.20847 | 5504 ft | 186 kts | 58° |
| 2026-04-28 13:57 | 25.84858 | 127.22079 | 5507 ft | 186 kts | 59° |
| 2026-04-28 13:57 | 25.85525 | 127.23310 | 5504 ft | 186 kts | 58° |
| 2026-04-28 13:57 | 25.86192 | 127.24541 | 5504 ft | 186 kts | 59° |
| 2026-04-28 13:58 | 25.86851 | 127.25757 | 5506 ft | 186 kts | 59° |
| 2026-04-28 13:58 | 25.87519 | 127.26989 | 5506 ft | 186 kts | 59° |
| 2026-04-28 13:58 | 25.88184 | 127.28216 | 5505 ft | 186 kts | 59° |
| 2026-04-28 13:58 | 25.88850 | 127.29447 | 5501 ft | 185 kts | 59° |
| 2026-04-28 13:59 | 25.89515 | 127.30670 | 5505 ft | 185 kts | 57° |
| 2026-04-28 13:59 | 25.90381 | 127.31720 | 5504 ft | 184 kts | 41° |
| 2026-04-28 13:59 | 25.91320 | 127.32693 | 5507 ft | 185 kts | 43° |
| 2026-04-28 13:59 | 25.92246 | 127.33689 | 5505 ft | 185 kts | 43° |
| 2026-04-28 14:00 | 25.93176 | 127.34684 | 5505 ft | 186 kts | 43° |
| 2026-04-28 14:00 | 25.94108 | 127.35677 | 5507 ft | 185 kts | 43° |
| 2026-04-28 14:00 | 25.95034 | 127.36673 | 5503 ft | 185 kts | 47° |
| 2026-04-28 14:00 | 25.95617 | 127.37916 | 5493 ft | 185 kts | 73° |
| 2026-04-28 14:01 | 25.95983 | 127.39286 | 5497 ft | 185 kts | 74° |
| 2026-04-28 14:01 | 25.96352 | 127.40655 | 5497 ft | 185 kts | 73° |
| 2026-04-28 14:01 | 25.96722 | 127.42025 | 5496 ft | 185 kts | 74° |
| 2026-04-28 14:01 | 25.97091 | 127.43397 | 5497 ft | 185 kts | 74° |
| 2026-04-28 14:02 | 25.97461 | 127.44777 | 5409 ft | 186 kts | 74° |
| 2026-04-28 14:02 | 25.97830 | 127.46140 | 5305 ft | 183 kts | 74° |
| 2026-04-28 14:02 | 25.98188 | 127.47472 | 5270 ft | 172 kts | 74° |
| 2026-04-28 14:02 | 25.98508 | 127.48692 | 5032 ft | 157 kts | 74° |
| 2026-04-28 14:03 | 25.98806 | 127.49823 | 4793 ft | 149 kts | 74° |
| 2026-04-28 14:03 | 25.99093 | 127.50911 | 4555 ft | 145 kts | 74° |
| 2026-04-28 14:03 | 25.99377 | 127.51978 | 4317 ft | 144 kts | 74° |
| 2026-04-28 14:03 | 25.99660 | 127.53042 | 4088 ft | 143 kts | 74° |
| 2026-04-28 14:04 | 25.99941 | 127.54102 | 3863 ft | 143 kts | 74° |
| 2026-04-28 14:04 | 26.00220 | 127.55147 | 3637 ft | 143 kts | 74° |
| 2026-04-28 14:04 | 26.00501 | 127.56204 | 3413 ft | 142 kts | 74° |
| 2026-04-28 14:04 | 26.00780 | 127.57258 | 3188 ft | 142 kts | 74° |
| 2026-04-28 14:05 | 26.01060 | 127.58310 | 2959 ft | 142 kts | 74° |
| 2026-04-28 14:05 | 26.01339 | 127.59363 | 2739 ft | 142 kts | 74° |
| 2026-04-28 14:05 | 26.01646 | 127.60402 | 2512 ft | 141 kts | 67° |
| 2026-04-28 14:05 | 26.02049 | 127.61397 | 2294 ft | 141 kts | 66° |
| 2026-04-28 14:06 | 26.02453 | 127.62391 | 2066 ft | 141 kts | 66° |
| 2026-04-28 14:06 | 26.02849 | 127.63355 | 2000 ft | 131 kts | 63° |
| 2026-04-28 14:06 | 26.03493 | 127.63973 | 1987 ft | 123 kts | 10° |
| 2026-04-28 14:06 | 26.04324 | 127.63953 | 1992 ft | 117 kts | 359° |
| 2026-04-28 14:07 | 26.05120 | 127.63939 | 2010 ft | 111 kts | 356° |
| 2026-04-28 14:07 | 26.05894 | 127.63913 | 2006 ft | 113 kts | 357° |
| 2026-04-28 14:07 | 26.06687 | 127.63880 | 2008 ft | 115 kts | 356° |
| 2026-04-28 14:07 | 26.07482 | 127.63843 | 2010 ft | 116 kts | 357° |
| 2026-04-28 14:08 | 26.08317 | 127.63802 | 1893 ft | 125 kts | 356° |
| 2026-04-28 14:08 | 26.09205 | 127.63765 | 1729 ft | 125 kts | 357° |
| 2026-04-28 14:08 | 26.10052 | 127.63723 | 1565 ft | 122 kts | 356° |
| 2026-04-28 14:08 | 26.10892 | 127.63682 | 1402 ft | 118 kts | 356° |
| 2026-04-28 14:09 | 26.11650 | 127.63644 | 1263 ft | 102 kts | 356° |
| 2026-04-28 14:09 | 26.12337 | 127.63614 | 1122 ft | 96 kts | 356° |
| 2026-04-28 14:09 | 26.12996 | 127.63581 | 996 ft | 94 kts | 356° |
| 2026-04-28 14:09 | 26.13642 | 127.63549 | 874 ft | 92 kts | 356° |
| 2026-04-28 14:10 | 26.14280 | 127.63523 | 756 ft | 88 kts | 355° |
| 2026-04-28 14:10 | 26.14877 | 127.63492 | 643 ft | 85 kts | 356° |
| 2026-04-28 14:10 | 26.15459 | 127.63463 | 530 ft | 83 kts | 355° |
| 2026-04-28 14:10 | 26.16038 | 127.63440 | 419 ft | 83 kts | 355° |
| 2026-04-28 14:11 | 26.16614 | 127.63410 | 309 ft | 83 kts | 356° |
| 2026-04-28 14:11 | 26.17193 | 127.63384 | 198 ft | 84 kts | 356° |
| 2026-04-28 14:11 | 26.17779 | 127.63362 | 70 ft | 85 kts | 355° |
| 2026-04-28 14:11 | 26.18354 | 127.63330 | 17 ft | 78 kts | 357° |
| 2026-04-28 14:12 | 26.18794 | 127.63309 | 14 ft | 54 kts | 0° |
| 2026-04-28 14:12 | 26.19050 | 127.63306 | 13 ft | 20 kts | 12° |
| 2026-04-28 14:12 | 26.19094 | 127.63442 | 15 ft | 16 kts | 75° |
| 2026-04-28 14:12 | 26.19224 | 127.63482 | 15 ft | 26 kts | 356° |
| 2026-04-28 14:13 | 26.19440 | 127.63468 | 16 ft | 36 kts | 3° |
| 2026-04-28 14:13 | 26.19621 | 127.63463 | 16 ft | 21 kts | 352° |
| 2026-04-28 14:13 | 26.19787 | 127.63454 | 16 ft | 27 kts | 358° |
| 2026-04-28 14:13 | 26.19957 | 127.63449 | 16 ft | 22 kts | 357° |
| 2026-04-28 14:14 | 26.20015 | 127.63447 | 16 ft | 0 kts | 358° |
| 2026-04-28 14:14 | 26.20036 | 127.63446 | 16 ft | 9 kts | 357° |
| 2026-04-28 14:14 | 26.20128 | 127.63437 | 15 ft | 18 kts | 358° |
| 2026-04-28 14:14 | 26.20217 | 127.63513 | 15 ft | 17 kts | 87° |
| 2026-04-28 14:15 | 26.20222 | 127.63690 | 16 ft | 28 kts | 88° |
| 2026-04-28 14:15 | 26.20231 | 127.63923 | 16 ft | 28 kts | 88° |
| 2026-04-28 14:15 | 26.20240 | 127.64161 | 16 ft | 32 kts | 87° |
| 2026-04-28 14:15 | 26.20245 | 127.64261 | 16 ft | 0 kts | 86° |